Time;durP1;ratioP1;P1;durP2;ratioP2;P2;SDS_P1;SDS_P2;PMS_P1;PMS_P2;Temp;Humidity;BMP_temperature;BMP_pressure;BME280_temperature;BME280_humidity;BME280_pressure;Samples;Min_cycle;Max_cycle;Signal;HPM_P1;HPM_P2
2022/12/15 00:40:38;;;;;;;8.27;7.47;;;;;;;;;;5011245;28;20455;-67
2022/12/15 00:43:04;;;;;;;7.83;7.13;;;;;;;;;;5011813;28;20813;-67
2022/12/15 00:48:14;;;;;;;8.10;7.33;;;;;;;;;;5011882;28;20430;-67
2022/12/15 00:50:52;;;;;;;9.23;8.17;;;;;;;;;;5012933;28;20427;-67
2022/12/15 01:20:45;;;;;;;10.50;9.60;;;;;;;;;;5012323;28;20992;-67
2022/12/15 01:23:11;;;;;;;8.73;7.97;;;;;;;;;;5012081;28;20523;-67
2022/12/15 01:25:38;;;;;;;9.87;8.97;;;;;;;;;;5012386;28;20623;-67
2022/12/15 01:28:04;;;;;;;9.13;8.20;;;;;;;;;;5012155;28;20424;-67
2022/12/15 01:30:30;;;;;;;11.10;9.00;;;;;;;;;;5010986;28;20432;-67
2022/12/15 01:32:56;;;;;;;9.63;8.70;;;;;;;;;;5010282;28;20785;-67
2022/12/15 01:35:22;;;;;;;11.00;9.90;;;;;;;;;;5011790;28;20455;-67
2022/12/15 01:37:48;;;;;;;8.63;7.73;;;;;;;;;;5011823;28;20928;-67
2022/12/15 01:43:00;;;;;;;10.03;9.03;;;;;;;;;;5012476;28;20440;-67
2022/12/15 01:45:29;;;;;;;8.37;7.53;;;;;;;;;;5011313;28;20471;-67
2022/12/15 01:47:57;;;;;;;11.00;8.13;;;;;;;;;;5011778;28;20444;-67
2022/12/15 01:50:24;;;;;;;10.03;9.00;;;;;;;;;;5011533;28;20428;-67
2022/12/15 01:52:50;;;;;;;9.70;8.70;;;;;;;;;;4994572;28;20442;-67
2022/12/15 01:55:18;;;;;;;8.90;8.07;;;;;;;;;;4995031;28;20440;-67
2022/12/15 01:57:46;;;;;;;9.77;8.77;;;;;;;;;;5011919;28;20456;-67
2022/12/15 02:00:12;;;;;;;10.47;8.03;;;;;;;;;;5011002;28;20854;-67
2022/12/15 02:02:38;;;;;;;9.17;8.27;;;;;;;;;;5010507;28;20436;-67
2022/12/15 02:05:04;;;;;;;11.07;8.80;;;;;;;;;;4994110;28;20480;-67
2022/12/15 02:07:30;;;;;;;11.20;10.10;;;;;;;;;;5011085;28;20428;-67
2022/12/15 02:09:59;;;;;;;10.30;9.30;;;;;;;;;;5011324;28;20435;-67
2022/12/15 02:12:37;;;;;;;9.40;8.43;;;;;;;;;;5009867;28;20490;-67
2022/12/15 02:15:06;;;;;;;8.63;7.67;;;;;;;;;;5010759;28;20444;-67
2022/12/15 02:17:35;;;;;;;7.90;7.30;;;;;;;;;;5010910;28;20424;-68
2022/12/15 02:20:04;;;;;;;12.00;9.10;;;;;;;;;;5011311;28;20967;-68
2022/12/15 02:22:42;;;;;;;10.23;9.17;;;;;;;;;;5009059;28;20486;-67
2022/12/15 02:25:22;;;;;;;8.87;8.07;;;;;;;;;;5011236;28;20483;-67
2022/12/15 02:28:07;;;;;;;8.47;7.73;;;;;;;;;;5010217;28;20435;-67
2022/12/15 02:31:48;;;;;;;10.63;9.53;;;;;;;;;;5010679;28;20438;-67
2022/12/15 02:33:35;;;;;;;10.87;7.37;;;;;;;;;;5010820;28;20424;-67
2022/12/15 02:36:08;;;;;;;9.23;8.33;;;;;;;;;;5011171;28;20470;-67
2022/12/15 02:38:36;;;;;;;10.90;9.70;;;;;;;;;;5011117;28;20916;-68
2022/12/15 02:41:02;;;;;;;8.67;8.03;;;;;;;;;;4993226;28;20437;-67
2022/12/15 02:43:29;;;;;;;12.30;9.87;;;;;;;;;;5011049;28;20444;-67
2022/12/15 02:46:18;;;;;;;10.20;9.07;;;;;;;;;;5009519;28;20538;-67
2022/12/15 02:49:13;;;;;;;11.60;8.50;;;;;;;;;;5010247;28;20990;-68
2022/12/15 02:52:02;;;;;;;10.90;8.63;;;;;;;;;;4938918;28;20436;-67
2022/12/15 02:54:34;;;;;;;13.20;10.17;;;;;;;;;;4998750;28;20428;-67
2022/12/15 02:57:05;;;;;;;13.50;10.73;;;;;;;;;;4991495;28;20432;-68
2022/12/15 02:59:31;;;;;;;13.13;10.23;;;;;;;;;;5010624;28;20444;-67
2022/12/15 03:02:00;;;;;;;12.40;9.53;;;;;;;;;;5009139;28;20486;-67
2022/12/15 03:04:26;;;;;;;11.77;10.13;;;;;;;;;;5010142;28;20495;-67
2022/12/15 03:06:56;;;;;;;12.83;10.20;;;;;;;;;;5009465;28;20436;-67
2022/12/15 03:09:22;;;;;;;14.20;9.97;;;;;;;;;;5010161;28;20467;-67
2022/12/15 03:11:48;;;;;;;14.47;10.80;;;;;;;;;;5009793;28;20432;-67
2022/12/15 03:14:15;;;;;;;13.20;10.50;;;;;;;;;;5010022;28;20441;-67
2022/12/15 03:16:41;;;;;;;11.77;10.57;;;;;;;;;;4991928;28;20535;-67
2022/12/15 03:19:06;;;;;;;13.10;10.30;;;;;;;;;;5010320;28;20507;-67
2022/12/15 03:21:32;;;;;;;12.70;10.67;;;;;;;;;;5009607;28;20424;-67
2022/12/15 03:23:58;;;;;;;11.87;10.17;;;;;;;;;;5010029;28;20480;-67
2022/12/15 03:26:24;;;;;;;18.23;10.30;;;;;;;;;;5010010;28;20519;-68
2022/12/15 03:28:51;;;;;;;12.40;9.03;;;;;;;;;;4991807;28;20452;-67
2022/12/15 03:31:17;;;;;;;11.57;10.00;;;;;;;;;;5008893;28;21261;-67
2022/12/15 03:33:43;;;;;;;11.50;8.77;;;;;;;;;;5009982;28;20505;-67
2022/12/15 03:36:09;;;;;;;14.67;12.10;;;;;;;;;;5010451;28;20427;-67
2022/12/15 03:38:35;;;;;;;12.63;10.83;;;;;;;;;;5010127;28;20428;-68
2022/12/15 03:41:01;;;;;;;16.23;10.50;;;;;;;;;;5008539;28;20964;-67
2022/12/15 03:43:27;;;;;;;13.37;11.37;;;;;;;;;;5010056;28;20877;-68
2022/12/15 03:45:53;;;;;;;12.20;10.47;;;;;;;;;;5008678;28;20484;-67
2022/12/15 03:48:19;;;;;;;14.83;11.03;;;;;;;;;;5009772;28;20436;-67
2022/12/15 03:50:47;;;;;;;11.53;9.77;;;;;;;;;;5009072;28;20543;-67
2022/12/15 03:53:13;;;;;;;13.43;10.27;;;;;;;;;;4992480;28;20435;-67
2022/12/15 03:55:39;;;;;;;13.10;10.73;;;;;;;;;;5009970;28;20534;-67
2022/12/15 03:58:05;;;;;;;14.17;10.40;;;;;;;;;;5008914;28;20483;-67
2022/12/15 04:00:32;;;;;;;12.80;10.47;;;;;;;;;;5009411;28;21035;-67
2022/12/15 04:02:58;;;;;;;12.00;10.03;;;;;;;;;;5009406;28;20442;-67
2022/12/15 04:05:25;;;;;;;14.50;10.70;;;;;;;;;;5009115;28;20476;-67
2022/12/15 04:07:52;;;;;;;12.93;10.10;;;;;;;;;;5009120;28;20455;-67
2022/12/15 04:10:18;;;;;;;14.27;11.10;;;;;;;;;;5008538;28;20425;-67
2022/12/15 04:12:44;;;;;;;11.80;9.83;;;;;;;;;;5007803;28;20532;-67
2022/12/15 04:15:11;;;;;;;11.33;10.23;;;;;;;;;;5010712;28;20482;-67
2022/12/15 04:17:37;;;;;;;13.03;10.50;;;;;;;;;;5013315;28;20436;-67
2022/12/15 04:20:10;;;;;;;10.70;9.70;;;;;;;;;;5012164;28;20938;-67
2022/12/15 04:22:40;;;;;;;11.30;9.60;;;;;;;;;;5013718;28;20506;-67
2022/12/15 05:33:52;;;;;;;14.63;10.80;;;;;;;;;;5011216;28;20555;-67
2022/12/15 05:36:18;;;;;;;12.83;9.80;;;;;;;;;;5011885;28;20462;-67
2022/12/15 05:38:47;;;;;;;12.47;9.67;;;;;;;;;;5010327;28;20424;-67
2022/12/15 05:41:12;;;;;;;19.80;11.33;;;;;;;;;;5010250;28;20440;-67
2022/12/15 05:43:38;;;;;;;18.03;13.20;;;;;;;;;;5011219;28;20446;-67
2022/12/15 05:46:04;;;;;;;14.03;10.63;;;;;;;;;;5010930;28;20475;-67
2022/12/15 05:48:30;;;;;;;10.33;9.00;;;;;;;;;;4992405;28;20540;-67
2022/12/15 05:50:56;;;;;;;16.87;10.80;;;;;;;;;;5010820;28;20530;-67
2022/12/15 05:53:22;;;;;;;14.53;10.67;;;;;;;;;;5011912;28;20928;-67
2022/12/15 05:55:48;;;;;;;13.63;11.37;;;;;;;;;;5010518;28;20436;-67
2022/12/15 05:58:14;;;;;;;13.77;10.63;;;;;;;;;;5009944;28;21023;-67
2022/12/15 06:00:40;;;;;;;13.70;10.83;;;;;;;;;;5010056;28;21090;-67
2022/12/15 06:03:06;;;;;;;15.83;11.60;;;;;;;;;;5009360;28;20489;-67
2022/12/15 06:05:33;;;;;;;14.70;11.43;;;;;;;;;;5011250;28;20476;-68
2022/12/15 06:07:59;;;;;;;12.43;11.13;;;;;;;;;;5010336;28;20455;-67
2022/12/15 06:10:26;;;;;;;19.87;11.27;;;;;;;;;;5010530;28;22119;-68
2022/12/15 06:12:53;;;;;;;14.13;11.43;;;;;;;;;;5008759;28;20498;-67
2022/12/15 06:15:19;;;;;;;12.30;9.60;;;;;;;;;;5010605;28;20448;-67
2022/12/15 06:17:44;;;;;;;17.40;13.20;;;;;;;;;;5008874;28;20436;-68
2022/12/15 06:20:11;;;;;;;16.77;11.57;;;;;;;;;;5010667;28;20463;-68
2022/12/15 06:22:37;;;;;;;21.37;13.07;;;;;;;;;;5007247;28;20973;-67
2022/12/15 06:25:03;;;;;;;16.90;11.30;;;;;;;;;;5009483;28;20475;-67
2022/12/15 06:27:29;;;;;;;17.60;12.47;;;;;;;;;;5008841;28;20514;-67
2022/12/15 06:29:55;;;;;;;16.60;12.77;;;;;;;;;;5007315;28;20440;-67
2022/12/15 06:32:22;;;;;;;16.70;11.93;;;;;;;;;;5009754;28;20452;-68
2022/12/15 06:34:48;;;;;;;21.20;12.63;;;;;;;;;;5010282;28;20522;-68
2022/12/15 06:37:14;;;;;;;20.20;14.17;;;;;;;;;;5008263;28;20955;-68
2022/12/15 06:39:40;;;;;;;22.13;13.80;;;;;;;;;;5009452;28;20446;-68
2022/12/15 06:42:06;;;;;;;15.97;12.07;;;;;;;;;;5009320;28;20439;-68
2022/12/15 06:44:32;;;;;;;17.30;13.17;;;;;;;;;;5006922;28;20511;-68
2022/12/15 06:46:58;;;;;;;18.80;13.20;;;;;;;;;;5009910;28;20484;-67
2022/12/15 06:49:24;;;;;;;20.43;13.97;;;;;;;;;;5009697;28;20435;-68
2022/12/15 06:51:50;;;;;;;19.83;12.83;;;;;;;;;;5007746;28;20433;-68
2022/12/15 06:54:16;;;;;;;31.30;18.60;;;;;;;;;;5006787;28;20460;-68
2022/12/15 06:56:42;;;;;;;39.57;23.53;;;;;;;;;;5008917;28;20822;-68
2022/12/15 06:59:09;;;;;;;20.67;14.18;;;;;;;;;;5007725;28;20827;-68
2022/12/15 07:01:35;;;;;;;23.73;12.93;;;;;;;;;;5010256;28;20276;-68
2022/12/15 07:04:04;;;;;;;18.23;13.63;;;;;;;;;;5010170;28;20515;-68
2022/12/15 07:06:36;;;;;;;19.30;13.10;;;;;;;;;;5009441;28;20488;-68
2022/12/15 07:09:02;;;;;;;16.20;12.63;;;;;;;;;;5010136;28;20467;-69
2022/12/15 07:11:28;;;;;;;25.70;14.30;;;;;;;;;;4991375;28;20959;-68
2022/12/15 07:13:54;;;;;;;26.33;16.10;;;;;;;;;;5007869;28;20522;-60
2022/12/15 07:16:21;;;;;;;20.30;13.77;;;;;;;;;;5010132;28;20550;-68
2022/12/15 07:18:47;;;;;;;19.00;15.00;;;;;;;;;;5009075;28;20428;-68
2022/12/15 07:21:13;;;;;;;22.00;14.07;;;;;;;;;;5009372;28;20446;-68
2022/12/15 07:23:39;;;;;;;22.00;14.47;;;;;;;;;;5008956;28;20515;-69
2022/12/15 07:26:06;;;;;;;21.00;11.50;;;;;;;;;;5010174;28;20903;-68
2022/12/15 07:28:32;;;;;;;27.10;15.70;;;;;;;;;;5008785;28;20429;-69
2022/12/15 07:31:10;;;;;;;27.13;15.17;;;;;;;;;;5009534;28;20443;-68
2022/12/15 07:33:36;;;;;;;24.77;14.17;;;;;;;;;;5009286;28;20436;-68
2022/12/15 07:36:03;;;;;;;19.03;13.77;;;;;;;;;;5008572;28;20527;-68
2022/12/15 07:38:29;;;;;;;21.57;15.30;;;;;;;;;;5008558;28;20470;-68
2022/12/15 07:40:55;;;;;;;24.50;15.50;;;;;;;;;;5009537;28;20475;-68
2022/12/15 07:43:22;;;;;;;25.50;15.77;;;;;;;;;;5009060;28;20486;-68
2022/12/15 07:45:51;;;;;;;20.70;15.57;;;;;;;;;;5009199;28;20529;-68
2022/12/15 07:48:18;;;;;;;25.13;16.60;;;;;;;;;;5008897;28;20443;-68
2022/12/15 07:50:44;;;;;;;26.70;15.63;;;;;;;;;;5009316;28;20823;-68
2022/12/15 07:53:10;;;;;;;25.50;15.40;;;;;;;;;;5008743;28;20455;-69
2022/12/15 07:55:36;;;;;;;30.77;18.53;;;;;;;;;;5008644;28;20797;-68
2022/12/15 07:58:02;;;;;;;23.20;14.93;;;;;;;;;;5009704;28;20417;-68
2022/12/15 08:00:28;;;;;;;25.33;15.57;;;;;;;;;;5008384;28;20532;-68
2022/12/15 08:02:54;;;;;;;24.77;15.60;;;;;;;;;;5009213;28;20526;-69
2022/12/15 08:05:20;;;;;;;20.30;13.50;;;;;;;;;;5009444;28;20959;-67
2022/12/15 08:07:46;;;;;;;24.80;16.03;;;;;;;;;;5007515;28;20923;-68
2022/12/15 08:10:12;;;;;;;24.47;16.57;;;;;;;;;;5007852;28;20435;-69
2022/12/15 08:12:38;;;;;;;22.47;15.83;;;;;;;;;;5009242;28;20472;-68
2022/12/15 08:15:05;;;;;;;26.20;15.63;;;;;;;;;;5008373;28;20924;-68
2022/12/15 08:17:30;;;;;;;19.77;14.37;;;;;;;;;;5007525;28;20431;-68
2022/12/15 08:19:57;;;;;;;22.83;13.97;;;;;;;;;;5008492;28;20451;-69
2022/12/15 08:22:23;;;;;;;25.93;15.93;;;;;;;;;;4990579;28;20511;-68
2022/12/15 08:24:49;;;;;;;23.20;15.33;;;;;;;;;;5009193;28;20464;-69
2022/12/15 08:27:15;;;;;;;20.50;13.67;;;;;;;;;;5005570;28;20442;-68
2022/12/15 08:29:41;;;;;;;19.33;14.47;;;;;;;;;;5008778;28;20869;-68
2022/12/15 08:32:07;;;;;;;21.27;14.53;;;;;;;;;;5009382;28;20444;-69
2022/12/15 08:34:34;;;;;;;21.10;13.87;;;;;;;;;;5008664;28;20463;-68
2022/12/15 08:37:00;;;;;;;15.70;12.80;;;;;;;;;;5008219;28;20432;-68
2022/12/15 08:39:26;;;;;;;17.17;12.67;;;;;;;;;;5008934;28;21035;-68
2022/12/15 08:41:52;;;;;;;20.70;14.50;;;;;;;;;;4991654;28;20504;-68
2022/12/15 08:44:18;;;;;;;19.67;15.17;;;;;;;;;;5008725;28;20446;-69
2022/12/15 08:46:44;;;;;;;20.97;13.10;;;;;;;;;;5009287;28;20570;-68
2022/12/15 08:49:10;;;;;;;22.33;13.90;;;;;;;;;;5008248;28;20522;-68
2022/12/15 08:51:36;;;;;;;27.63;14.70;;;;;;;;;;5007233;28;20440;-68
2022/12/15 08:54:02;;;;;;;19.20;13.90;;;;;;;;;;5007437;28;20435;-68
2022/12/15 08:56:28;;;;;;;22.30;15.53;;;;;;;;;;5008250;28;20526;-68
2022/12/15 08:58:55;;;;;;;23.43;15.60;;;;;;;;;;5005196;28;20942;-68
2022/12/15 09:01:23;;;;;;;19.97;15.47;;;;;;;;;;5005819;28;20615;-69
2022/12/15 09:03:49;;;;;;;24.80;14.90;;;;;;;;;;5011129;28;20436;-68
2022/12/15 09:06:35;;;;;;;27.33;18.33;;;;;;;;;;5010851;28;20480;-68
2022/12/15 09:09:03;;;;;;;24.23;16.40;;;;;;;;;;5008198;28;20427;-68
2022/12/15 09:11:30;;;;;;;24.03;16.00;;;;;;;;;;5006378;28;20436;-68
2022/12/15 09:13:56;;;;;;;21.83;14.70;;;;;;;;;;5008663;28;21811;-68
2022/12/15 09:16:22;;;;;;;26.80;16.60;;;;;;;;;;5007863;28;20968;-68
2022/12/15 09:18:52;;;;;;;24.50;14.60;;;;;;;;;;5010204;28;20428;-68
2022/12/15 09:21:23;;;;;;;24.90;16.23;;;;;;;;;;5010011;28;20496;-68
2022/12/15 09:23:50;;;;;;;24.67;16.53;;;;;;;;;;4991947;28;20416;-68
2022/12/15 09:26:17;;;;;;;22.73;16.20;;;;;;;;;;5008566;28;20494;-68
2022/12/15 09:28:43;;;;;;;23.03;15.27;;;;;;;;;;5008816;28;20436;-68
2022/12/15 09:31:13;;;;;;;25.13;16.20;;;;;;;;;;5007433;28;20442;-68
2022/12/15 09:33:40;;;;;;;23.37;15.60;;;;;;;;;;5010183;28;20428;-68
2022/12/15 09:36:07;;;;;;;20.13;14.93;;;;;;;;;;4992663;28;20447;-68
2022/12/15 09:38:33;;;;;;;24.50;15.87;;;;;;;;;;5011395;28;20435;-68
2022/12/15 09:41:07;;;;;;;20.30;14.20;;;;;;;;;;5011534;28;20428;-68
2022/12/15 09:43:33;;;;;;;22.40;14.73;;;;;;;;;;5011551;28;20803;-68
2022/12/15 09:46:03;;;;;;;23.63;15.30;;;;;;;;;;5011084;28;20495;-68
2022/12/15 09:48:36;;;;;;;24.30;16.57;;;;;;;;;;5010994;28;20440;-68
2022/12/15 09:51:03;;;;;;;22.73;15.43;;;;;;;;;;5011413;28;20507;-68
2022/12/15 09:53:29;;;;;;;25.20;16.07;;;;;;;;;;5011560;28;20511;-68
2022/12/15 09:56:00;;;;;;;28.17;16.80;;;;;;;;;;5010393;28;20515;-68
2022/12/15 09:58:29;;;;;;;20.57;13.20;;;;;;;;;;5011416;28;20431;-68
2022/12/15 10:00:57;;;;;;;18.50;11.70;;;;;;;;;;5011115;28;20427;-68
2022/12/15 10:03:33;;;;;;;26.40;16.60;;;;;;;;;;5010218;28;20412;-68
2022/12/15 10:06:11;;;;;;;28.70;17.77;;;;;;;;;;5011158;28;20471;-68
2022/12/15 10:08:40;;;;;;;25.67;17.23;;;;;;;;;;5011441;28;20420;-68
2022/12/15 10:11:14;;;;;;;24.73;16.20;;;;;;;;;;5010173;28;20440;-68
2022/12/15 10:14:00;;;;;;;24.97;16.53;;;;;;;;;;5009688;28;20471;-68
2022/12/15 10:16:36;;;;;;;26.67;16.87;;;;;;;;;;5011348;28;20932;-68
2022/12/15 10:19:02;;;;;;;23.43;15.67;;;;;;;;;;5010896;28;20530;-68
2022/12/15 10:21:30;;;;;;;25.13;16.83;;;;;;;;;;5010517;28;20435;-68
2022/12/15 10:24:02;;;;;;;25.40;16.43;;;;;;;;;;5011544;28;20855;-68
2022/12/15 10:26:31;;;;;;;30.27;17.67;;;;;;;;;;5011172;28;20487;-68
2022/12/15 10:29:18;;;;;;;26.67;15.73;;;;;;;;;;5010594;28;20475;-68
2022/12/15 10:31:49;;;;;;;33.47;17.77;;;;;;;;;;5010859;28;20443;-68
2022/12/15 10:34:25;;;;;;;29.40;17.80;;;;;;;;;;4993602;28;20432;-68
2022/12/15 10:36:51;;;;;;;26.40;17.57;;;;;;;;;;5010860;28;20486;-68
2022/12/15 10:39:19;;;;;;;25.03;17.20;;;;;;;;;;5010277;28;20424;-68
2022/12/15 10:41:45;;;;;;;33.30;20.40;;;;;;;;;;5010238;28;20480;-68
2022/12/15 10:44:25;;;;;;;34.93;18.90;;;;;;;;;;5010298;28;20448;-68
2022/12/15 10:46:54;;;;;;;28.90;15.70;;;;;;;;;;5010997;28;20983;-68
2022/12/15 10:49:22;;;;;;;34.33;18.90;;;;;;;;;;5010598;28;20473;-68
2022/12/15 10:51:52;;;;;;;36.30;20.30;;;;;;;;;;5009578;28;21213;-68
2022/12/15 10:54:19;;;;;;;37.23;20.93;;;;;;;;;;5010997;28;20412;-68
2022/12/15 10:56:48;;;;;;;29.23;19.30;;;;;;;;;;5010593;28;20952;-68
2022/12/15 10:59:32;;;;;;;31.97;20.30;;;;;;;;;;5009983;28;20424;-68
2022/12/15 11:02:16;;;;;;;33.93;20.50;;;;;;;;;;5009176;28;20483;-68
2022/12/15 11:04:54;;;;;;;38.80;20.93;;;;;;;;;;5010027;28;20462;-68
2022/12/15 11:07:20;;;;;;;33.23;20.17;;;;;;;;;;5009561;28;20491;-68
2022/12/15 11:09:46;;;;;;;35.40;19.40;;;;;;;;;;5008414;28;20435;-68
2022/12/15 11:15:23;;;;;;;30.10;16.97;;;;;;;;;;5009625;28;20853;-68
2022/12/15 11:17:55;;;;;;;31.07;19.40;;;;;;;;;;5009393;28;20425;-68
2022/12/15 11:20:22;;;;;;;31.80;18.53;;;;;;;;;;5009556;28;20422;-68
2022/12/15 11:22:52;;;;;;;39.27;20.63;;;;;;;;;;4990796;28;20437;-67
2022/12/15 11:25:37;;;;;;;37.80;20.33;;;;;;;;;;5006486;28;20468;-68
2022/12/15 11:28:05;;;;;;;30.47;19.90;;;;;;;;;;5008377;28;20456;-68
2022/12/15 11:30:37;;;;;;;35.90;22.53;;;;;;;;;;5007527;28;20932;-68
2022/12/15 11:33:03;;;;;;;33.63;21.20;;;;;;;;;;5009729;28;20421;-69
2022/12/15 11:35:37;;;;;;;35.13;22.03;;;;;;;;;;5007851;28;20432;-68
2022/12/15 11:38:16;;;;;;;36.03;21.50;;;;;;;;;;5009742;28;20435;-69
2022/12/15 11:40:42;;;;;;;31.87;19.27;;;;;;;;;;5009338;28;20464;-69
2022/12/15 11:43:09;;;;;;;36.87;20.20;;;;;;;;;;5010278;28;20452;-68
2022/12/15 11:45:45;;;;;;;31.17;19.13;;;;;;;;;;5010188;28;20498;-68
2022/12/15 11:48:29;;;;;;;32.43;19.47;;;;;;;;;;5009338;28;20787;-68
2022/12/15 11:50:59;;;;;;;32.13;19.50;;;;;;;;;;5008171;28;20845;-68
2022/12/15 11:53:36;;;;;;;37.43;20.53;;;;;;;;;;4992104;28;20523;-67
2022/12/15 11:56:14;;;;;;;29.63;18.60;;;;;;;;;;5010379;28;20486;-68
2022/12/15 11:58:43;;;;;;;26.50;18.17;;;;;;;;;;5008129;28;20522;-69
2022/12/15 12:01:12;;;;;;;32.83;19.13;;;;;;;;;;5006988;28;20924;-68
2022/12/15 12:04:00;;;;;;;30.53;18.37;;;;;;;;;;4990990;28;20770;-68
2022/12/15 12:06:34;;;;;;;22.80;14.07;;;;;;;;;;5004606;28;20484;-68
2022/12/15 12:09:19;;;;;;;32.47;19.37;;;;;;;;;;5007557;28;20416;-68
2022/12/15 12:12:20;;;;;;;30.97;18.70;;;;;;;;;;5006633;28;20420;-68
2022/12/15 12:14:50;;;;;;;33.00;18.83;;;;;;;;;;4991514;28;20491;-68
2022/12/15 12:17:16;;;;;;;29.57;18.97;;;;;;;;;;5007522;28;20514;-68
2022/12/15 12:19:44;;;;;;;32.17;19.27;;;;;;;;;;5007405;28;20424;-69
2022/12/15 12:22:28;;;;;;;36.10;19.23;;;;;;;;;;5005640;28;20439;-68
2022/12/15 12:25:06;;;;;;;31.23;17.60;;;;;;;;;;5007163;28;20436;-68
2022/12/15 12:27:42;;;;;;;36.30;22.10;;;;;;;;;;5006795;28;20454;-68
2022/12/15 12:30:08;;;;;;;43.67;28.47;;;;;;;;;;5004568;28;20428;-68
2022/12/15 12:32:40;;;;;;;33.97;18.90;;;;;;;;;;5007661;28;20432;-68
2022/12/15 12:35:10;;;;;;;38.10;21.90;;;;;;;;;;4989807;28;20523;-68
2022/12/15 12:37:39;;;;;;;41.67;21.57;;;;;;;;;;5008841;28;20452;-68
2022/12/15 12:40:11;;;;;;;34.37;20.27;;;;;;;;;;5012637;28;20519;-68
2022/12/15 12:42:41;;;;;;;35.70;20.50;;;;;;;;;;5013425;28;20454;-68
2022/12/15 12:45:12;;;;;;;36.40;22.37;;;;;;;;;;5012614;28;20432;-68
2022/12/15 12:47:40;;;;;;;48.20;24.57;;;;;;;;;;5012827;28;20875;-68
2022/12/15 12:50:14;;;;;;;43.80;21.63;;;;;;;;;;5012851;28;20431;-68
2022/12/15 12:52:46;;;;;;;43.23;22.70;;;;;;;;;;4996257;28;20412;-68
2022/12/15 12:55:12;;;;;;;41.00;23.50;;;;;;;;;;5012670;28;20453;-68
2022/12/15 12:57:39;;;;;;;39.27;22.00;;;;;;;;;;5012151;28;20451;-68
2022/12/15 13:00:24;;;;;;;41.40;22.03;;;;;;;;;;5011729;28;20530;-68
2022/12/15 13:02:50;;;;;;;37.83;21.23;;;;;;;;;;4989357;28;20582;-68
2022/12/15 13:05:30;;;;;;;35.60;19.43;;;;;;;;;;5008779;28;20559;-68
2022/12/15 13:08:16;;;;;;;45.70;22.30;;;;;;;;;;5011185;28;20812;-68
2022/12/15 13:10:43;;;;;;;44.10;23.37;;;;;;;;;;5011367;28;20486;-68
2022/12/15 13:13:18;;;;;;;44.00;24.53;;;;;;;;;;5011357;28;20476;-68
2022/12/15 13:15:46;;;;;;;42.90;23.80;;;;;;;;;;5009954;28;20440;-71
2022/12/15 13:18:14;;;;;;;47.43;25.00;;;;;;;;;;4994103;28;20507;-68
2022/12/15 13:20:41;;;;;;;34.60;19.30;;;;;;;;;;5012640;28;20464;-68
2022/12/15 13:23:19;;;;;;;48.80;25.53;;;;;;;;;;5012800;28;20415;-68
2022/12/15 13:25:46;;;;;;;43.17;23.10;;;;;;;;;;4994212;28;20474;-68
2022/12/15 13:28:17;;;;;;;41.97;23.60;;;;;;;;;;5011170;28;20437;-68
2022/12/15 13:31:21;;;;;;;46.37;24.53;;;;;;;;;;5012076;28;20439;-68
2022/12/15 13:33:50;;;;;;;45.93;24.07;;;;;;;;;;4932065;29;20447;-68
2022/12/15 13:36:34;;;;;;;46.57;23.80;;;;;;;;;;4997824;28;20435;-68
2022/12/15 13:39:00;;;;;;;43.73;22.30;;;;;;;;;;5010056;28;20440;-68
2022/12/15 13:41:26;;;;;;;48.37;26.37;;;;;;;;;;5011788;28;20475;-68
2022/12/15 13:43:53;;;;;;;36.83;21.73;;;;;;;;;;5009938;28;21003;-68
2022/12/15 13:46:24;;;;;;;44.17;23.47;;;;;;;;;;5011832;28;20487;-68
2022/12/15 13:49:03;;;;;;;48.87;24.03;;;;;;;;;;5011774;28;20508;-68
2022/12/15 13:51:37;;;;;;;43.93;25.63;;;;;;;;;;4994225;28;20855;-68
2022/12/15 13:54:21;;;;;;;42.10;24.07;;;;;;;;;;5011884;28;20439;-68
2022/12/15 13:57:02;;;;;;;43.93;22.47;;;;;;;;;;5010459;28;20490;-68
2022/12/15 13:59:47;;;;;;;46.07;24.50;;;;;;;;;;5011305;28;20416;-68
2022/12/15 14:02:24;;;;;;;45.10;24.37;;;;;;;;;;5011830;28;20455;-68
2022/12/15 14:05:05;;;;;;;44.00;23.13;;;;;;;;;;5011838;28;20432;-68
2022/12/15 14:07:31;;;;;;;38.63;20.47;;;;;;;;;;5010677;28;20502;-68
2022/12/15 14:09:57;;;;;;;33.30;20.70;;;;;;;;;;5011344;28;20440;-68
2022/12/15 14:12:23;;;;;;;38.00;18.90;;;;;;;;;;4993534;28;20507;-68
2022/12/15 14:14:51;;;;;;;39.23;23.07;;;;;;;;;;5010715;28;20436;-67
2022/12/15 14:17:18;;;;;;;33.53;20.27;;;;;;;;;;5011054;28;20436;-68
2022/12/15 14:19:45;;;;;;;39.27;23.10;;;;;;;;;;5008588;28;20452;-68
2022/12/15 14:22:17;;;;;;;37.00;23.50;;;;;;;;;;5010332;28;20514;-68
2022/12/15 14:24:44;;;;;;;39.37;20.47;;;;;;;;;;5009405;28;20440;-68
2022/12/15 14:27:21;;;;;;;37.20;22.97;;;;;;;;;;4992151;28;20489;-68
2022/12/15 14:29:47;;;;;;;40.03;21.70;;;;;;;;;;5009872;28;20427;-68
2022/12/15 14:32:14;;;;;;;35.77;19.97;;;;;;;;;;5009409;28;20442;-69
2022/12/15 14:34:40;;;;;;;34.73;19.70;;;;;;;;;;5010540;28;20528;-69
2022/12/15 14:37:16;;;;;;;33.10;19.63;;;;;;;;;;5009791;28;20442;-68
2022/12/15 14:39:44;;;;;;;29.00;18.47;;;;;;;;;;5008478;28;20432;-69
2022/12/15 14:42:22;;;;;;;32.63;17.90;;;;;;;;;;5009731;28;20873;-68
2022/12/15 14:44:48;;;;;;;42.20;22.80;;;;;;;;;;5008657;28;20428;-69
2022/12/15 14:47:28;;;;;;;40.17;23.20;;;;;;;;;;5008106;28;21007;-68
2022/12/15 14:49:56;;;;;;;32.50;18.03;;;;;;;;;;5009713;28;20439;-69
2022/12/15 14:52:27;;;;;;;39.97;20.93;;;;;;;;;;5010247;28;20444;-68
2022/12/15 14:54:55;;;;;;;44.67;23.30;;;;;;;;;;4993285;28;20486;-68
2022/12/15 14:57:37;;;;;;;40.50;22.37;;;;;;;;;;4992787;28;20979;-68
2022/12/15 15:00:22;;;;;;;36.90;21.67;;;;;;;;;;5006954;28;20440;-68
2022/12/15 15:02:48;;;;;;;36.60;21.53;;;;;;;;;;5011059;28;20404;-68
2022/12/15 15:05:25;;;;;;;37.30;22.37;;;;;;;;;;5010292;28;21033;-68
2022/12/15 15:07:55;;;;;;;43.43;21.40;;;;;;;;;;5010385;28;20432;-68
2022/12/15 15:10:22;;;;;;;35.13;20.87;;;;;;;;;;5009499;28;20471;-68
2022/12/15 15:12:49;;;;;;;37.63;19.77;;;;;;;;;;5010342;28;20971;-68
2022/12/15 15:15:16;;;;;;;29.87;19.00;;;;;;;;;;5009659;28;21809;-68
2022/12/15 15:17:44;;;;;;;38.37;21.57;;;;;;;;;;5009763;28;20510;-68
2022/12/15 15:20:21;;;;;;;33.70;20.30;;;;;;;;;;5009855;28;20428;-68
2022/12/15 15:23:01;;;;;;;36.23;20.50;;;;;;;;;;5010227;28;20435;-68
2022/12/15 15:25:34;;;;;;;35.70;21.67;;;;;;;;;;5010609;28;20502;-67
2022/12/15 15:28:03;;;;;;;37.90;22.07;;;;;;;;;;5009587;28;20428;-68
2022/12/15 15:30:29;;;;;;;39.67;21.27;;;;;;;;;;5007986;28;20432;-68
2022/12/15 15:33:01;;;;;;;39.30;19.63;;;;;;;;;;5009431;28;20455;-67
2022/12/15 15:35:30;;;;;;;40.03;22.50;;;;;;;;;;5009693;28;20436;-68
2022/12/15 15:38:02;;;;;;;34.80;20.70;;;;;;;;;;5008476;28;20440;-68
2022/12/15 15:40:28;;;;;;;33.80;20.33;;;;;;;;;;5008337;28;20498;-68
2022/12/15 15:42:54;;;;;;;32.90;21.03;;;;;;;;;;5007323;28;20849;-68
2022/12/15 15:45:20;;;;;;;37.90;22.10;;;;;;;;;;5008272;28;20472;-67
2022/12/15 15:47:48;;;;;;;31.70;18.87;;;;;;;;;;5007680;28;20978;-68
2022/12/15 15:50:15;;;;;;;32.73;21.40;;;;;;;;;;5007610;28;20475;-68
2022/12/15 15:52:42;;;;;;;35.37;22.57;;;;;;;;;;5009877;28;20424;-68
2022/12/15 15:55:12;;;;;;;33.03;20.57;;;;;;;;;;4991802;28;20429;-68
2022/12/15 15:57:38;;;;;;;33.70;19.70;;;;;;;;;;5009229;28;20416;-68
2022/12/15 16:00:13;;;;;;;38.10;19.47;;;;;;;;;;5008463;28;20511;-68
2022/12/15 16:02:39;;;;;;;32.77;18.13;;;;;;;;;;4991872;28;20480;-68
2022/12/15 16:05:05;;;;;;;34.07;19.20;;;;;;;;;;5007156;28;20467;-68
2022/12/15 16:07:31;;;;;;;33.43;19.30;;;;;;;;;;5009596;28;20444;-68
2022/12/15 16:09:57;;;;;;;30.70;18.60;;;;;;;;;;4992043;28;20431;-68
2022/12/15 16:12:27;;;;;;;31.87;20.47;;;;;;;;;;5013578;28;20468;-68
2022/12/15 16:14:56;;;;;;;31.57;19.67;;;;;;;;;;5012731;28;20439;-67
2022/12/15 16:17:22;;;;;;;29.47;18.13;;;;;;;;;;5013363;28;20428;-67
2022/12/15 16:19:48;;;;;;;38.13;19.07;;;;;;;;;;5012674;28;20440;-68
2022/12/15 16:22:16;;;;;;;34.97;19.03;;;;;;;;;;4996233;28;20440;-68
2022/12/15 16:24:42;;;;;;;33.90;20.27;;;;;;;;;;5011113;28;20442;-67
2022/12/15 16:27:09;;;;;;;28.70;19.53;;;;;;;;;;5011706;28;20600;-68
2022/12/15 16:29:44;;;;;;;32.70;17.97;;;;;;;;;;5012124;28;20428;-68
2022/12/15 16:32:12;;;;;;;33.63;18.30;;;;;;;;;;5011553;28;20436;-67
2022/12/15 16:34:38;;;;;;;31.10;19.30;;;;;;;;;;5012873;28;20424;-67
2022/12/15 16:37:04;;;;;;;31.13;17.93;;;;;;;;;;4995242;28;20530;-68
2022/12/15 16:39:34;;;;;;;27.60;16.70;;;;;;;;;;5012701;28;20932;-67
2022/12/15 16:42:00;;;;;;;27.90;18.63;;;;;;;;;;5012403;28;20444;-67
2022/12/15 16:44:28;;;;;;;31.13;20.57;;;;;;;;;;5012475;28;20424;-68
2022/12/15 16:46:54;;;;;;;21.43;16.43;;;;;;;;;;4993813;28;20995;-67
2022/12/15 16:49:19;;;;;;;25.03;17.17;;;;;;;;;;5010540;28;20432;-68
2022/12/15 16:51:47;;;;;;;27.47;16.80;;;;;;;;;;5010901;28;20876;-67
2022/12/15 16:54:19;;;;;;;29.07;16.87;;;;;;;;;;5008263;28;20440;-67
2022/12/15 16:56:45;;;;;;;26.30;18.40;;;;;;;;;;5009033;28;20978;-67